Time;durP1;ratioP1;P1;durP2;ratioP2;P2;SDS_P1;SDS_P2;PMS_P1;PMS_P2;Temp;Humidity;BMP_temperature;BMP_pressure;BME280_temperature;BME280_humidity;BME280_pressure;Samples;Min_cycle;Max_cycle;Signal;HPM_P1;HPM_P2
2021/06/23 07:18:45;;;;;;;16.23;5.58;;;;;;;27.02;60.39;99807.59;1678143;84;21691;-40
2021/06/23 07:21:17;;;;;;;7.85;4.35;;;;;;;26.99;61.34;99812.33;1748221;80;21051;-40
2021/06/23 07:23:40;;;;;;;9.50;4.50;;;;;;;27.09;61.24;99812.53;1736699;81;21084;-41
2021/06/23 07:26:09;;;;;;;17.25;4.80;;;;;;;27.16;61.15;99819.13;1735609;81;21045;-40
2021/06/23 07:28:55;;;;;;;20.77;5.28;;;;;;;27.16;61.01;99817.30;1741267;80;21052;-40
2021/06/23 07:31:09;;;;;;;13.00;4.60;;;;;;;27.17;61.45;99816.81;1720901;80;20958;-41
2021/06/23 07:33:38;;;;;;;16.52;4.40;;;;;;;27.25;61.18;99823.78;1726562;80;22124;-40
2021/06/23 07:38:50;;;;;;;9.95;4.35;;;;;;;27.42;60.00;99823.83;1710280;81;21624;-40
2021/06/23 07:41:17;;;;;;;15.08;4.75;;;;;;;27.54;59.47;99827.79;1732908;81;21032;-43
2021/06/23 07:43:45;;;;;;;9.80;3.83;;;;;;;27.64;59.12;99829.73;1733249;80;21056;-43
2021/06/23 07:46:12;;;;;;;14.43;4.47;;;;;;;27.72;59.30;99828.21;1731293;81;21025;-43
2021/06/23 07:48:39;;;;;;;11.03;4.53;;;;;;;27.84;59.23;99823.20;1733678;80;21125;-43
2021/06/23 08:10:05;;;;;;;11.00;4.40;;;;;;;28.62;57.65;99830.85;1755427;79;21622;-44
2021/06/23 08:12:41;;;;;;;10.90;4.15;;;;;;;28.73;57.19;99828.63;1751897;80;21134;-36
2021/06/23 08:14:59;;;;;;;12.78;4.80;;;;;;;28.82;57.41;99830.07;1753440;80;21693;-37
2021/06/23 08:17:26;;;;;;;9.35;4.28;;;;;;;28.90;57.77;99831.62;1750603;79;21570;-37
2021/06/23 08:19:55;;;;;;;12.78;4.22;;;;;;;28.96;58.52;99837.52;1745093;81;21477;-35
2021/06/23 08:22:25;;;;;;;10.03;4.80;;;;;;;28.96;58.21;99834.33;1748911;80;21606;-43
2021/06/23 08:24:53;;;;;;;14.68;4.47;;;;;;;28.90;56.87;99832.11;1748334;79;21095;-43
2021/06/23 08:27:20;;;;;;;9.03;4.22;;;;;;;28.75;56.93;99831.53;1736748;80;21129;-43
2021/06/23 08:29:46;;;;;;;15.15;5.00;;;;;;;28.65;57.97;99841.37;1741439;80;21688;-37
2021/06/23 08:32:13;;;;;;;14.13;4.60;;;;;;;28.68;58.70;99838.91;1733401;80;21022;-43
2021/06/23 08:34:40;;;;;;;10.05;4.47;;;;;;;28.77;57.80;99839.51;1742387;80;21467;-44
2021/06/23 08:37:07;;;;;;;13.40;4.67;;;;;;;28.85;57.61;99848.64;1735679;80;21677;-42
2021/06/23 08:39:34;;;;;;;15.38;4.28;;;;;;;28.94;57.35;99851.60;1732732;80;21069;-42
2021/06/23 08:42:01;;;;;;;10.20;4.65;;;;;;;29.04;57.04;99859.25;1752328;80;21542;-37
2021/06/23 08:44:36;;;;;;;7.65;4.25;;;;;;;29.14;56.78;99860.19;1690529;82;20997;-38
2021/06/23 08:47:15;;;;;;;9.78;4.47;;;;;;;29.23;56.66;99862.63;1669546;83;21144;-36
2021/06/23 08:49:47;;;;;;;10.90;5.00;;;;;;;29.35;56.86;99862.92;1739791;81;21120;-36
2021/06/23 08:52:15;;;;;;;8.50;4.10;;;;;;;29.45;56.16;99870.56;1732497;81;21135;-43
2021/06/23 08:54:53;;;;;;;9.50;5.03;;;;;;;29.52;55.64;99866.88;1725596;81;21072;-36
2021/06/23 08:57:25;;;;;;;19.27;5.03;;;;;;;29.57;55.81;99868.23;1685619;82;21106;-44
2021/06/23 08:59:57;;;;;;;20.02;6.45;;;;;;;29.63;55.87;99871.73;1722623;81;21084;-36
2021/06/23 09:02:30;;;;;;;9.60;4.67;;;;;;;29.68;55.27;99865.43;1727553;81;21223;-36
2021/06/23 09:05:03;;;;;;;12.60;5.42;;;;;;;29.68;55.15;99868.12;1724850;82;21476;-36
2021/06/23 09:07:48;;;;;;;14.03;4.72;;;;;;;29.72;55.32;99858.44;1739373;80;21093;-36
2021/06/23 09:10:38;;;;;;;8.80;4.65;;;;;;;29.77;55.65;99857.05;1724512;81;21001;-42
2021/06/23 09:13:13;;;;;;;15.68;5.03;;;;;;;29.86;55.51;99859.43;1721233;81;21643;-36
2021/06/23 09:15:54;;;;;;;17.20;5.20;;;;;;;29.93;55.29;99864.67;1752302;80;21056;-43
2021/06/23 09:18:32;;;;;;;15.28;4.58;;;;;;;29.89;54.69;99863.22;1738901;80;21572;-43
2021/06/23 09:21:17;;;;;;;13.28;5.30;;;;;;;29.86;55.89;99864.36;1731510;81;21041;-43
2021/06/23 09:23:54;;;;;;;13.60;4.90;;;;;;;29.94;55.63;99867.72;1736659;81;21033;-44
2021/06/23 09:26:37;;;;;;;12.23;4.50;;;;;;;30.03;55.00;99862.00;1729277;81;21135;-43
2021/06/23 09:29:21;;;;;;;21.07;5.08;;;;;;;30.11;54.91;99861.73;1717213;80;21664;-41
2021/06/23 09:32:03;;;;;;;16.07;5.08;;;;;;;30.08;54.09;99863.30;1729263;81;21005;-43
2021/06/23 09:34:36;;;;;;;17.05;5.42;;;;;;;30.04;54.20;99866.44;1701399;82;21108;-43
2021/06/23 09:37:30;;;;;;;11.73;4.87;;;;;;;30.09;54.37;99854.22;1737649;81;21114;-43
2021/06/23 09:40:30;;;;;;;16.85;5.45;;;;;;;30.18;53.16;99858.00;1740756;81;21069;-36
2021/06/23 09:43:04;;;;;;;16.07;5.75;;;;;;;30.26;53.62;99858.66;1659552;85;21065;-36
2021/06/23 09:45:32;;;;;;;8.98;4.50;;;;;;;30.33;54.42;99863.39;1654802;84;21638;-36
2021/06/23 09:48:03;;;;;;;9.83;5.03;;;;;;;30.38;54.55;99850.81;1631329;85;21243;-43
2021/06/23 09:50:31;;;;;;;17.57;4.97;;;;;;;30.38;53.61;99849.46;1606506;86;21057;-43
2021/06/23 09:53:14;;;;;;;11.83;5.20;;;;;;;30.38;52.95;99855.74;1633722;85;21048;-35
2021/06/23 09:55:45;;;;;;;18.57;5.47;;;;;;;30.42;52.30;99850.91;1643858;86;21069;-37
2021/06/23 09:58:14;;;;;;;12.97;5.30;;;;;;;30.43;52.42;99856.16;1653261;84;21096;-36
2021/06/23 10:01:09;;;;;;;16.10;5.83;;;;;;;30.44;51.88;99859.70;1663640;84;21641;-36
2021/06/23 10:03:57;;;;;;;10.95;6.15;;;;;;;30.45;52.51;99858.23;1637668;84;21158;-42
2021/06/23 10:06:34;;;;;;;15.05;6.17;;;;;;;30.50;52.46;99854.25;1614228;86;21069;-43
2021/06/23 10:09:24;;;;;;;13.28;6.12;;;;;;;30.44;53.62;99855.19;1619122;86;21111;-35
2021/06/23 10:12:05;;;;;;;19.50;5.85;;;;;;;30.42;52.94;99861.20;1612271;87;21571;-48
2021/06/23 10:14:42;;;;;;;15.72;7.22;;;;;;;30.44;53.00;99854.31;1608128;86;21123;-36
2021/06/23 10:17:10;;;;;;;13.78;7.20;;;;;;;30.49;52.68;99853.40;1618239;87;21531;-44
2021/06/23 10:19:42;;;;;;;20.82;6.85;;;;;;;30.53;51.78;99856.19;1605833;86;21112;-44
2021/06/23 10:22:09;;;;;;;18.90;7.35;;;;;;;30.55;52.33;99852.00;1630867;85;21715;-44
2021/06/23 10:24:37;;;;;;;18.90;7.08;;;;;;;30.57;53.28;99853.58;1634976;85;21155;-44
2021/06/23 10:27:11;;;;;;;23.73;8.28;;;;;;;30.62;53.08;99849.97;1585864;88;21181;-43
2021/06/23 10:29:36;;;;;;;24.65;7.97;;;;;;;30.68;52.72;99847.22;1609869;87;21568;-43
2021/06/23 10:32:07;;;;;;;18.90;7.83;;;;;;;30.79;51.61;99844.89;1609424;85;21159;-36
2021/06/23 10:34:35;;;;;;;13.38;7.92;;;;;;;30.94;50.96;99848.40;1611535;86;21758;-37
2021/06/23 10:37:02;;;;;;;24.77;9.20;;;;;;;31.11;50.55;99846.84;1617815;87;21223;-37
2021/06/23 10:39:32;;;;;;;26.90;9.70;;;;;;;31.31;50.38;99846.86;1622902;86;21122;-36
2021/06/23 10:42:07;;;;;;;23.47;9.30;;;;;;;31.52;50.04;99843.49;1634405;86;21127;-36
2021/06/23 10:44:43;;;;;;;16.05;8.00;;;;;;;31.76;49.88;99838.95;1735540;80;21424;-43
2021/06/23 10:47:08;;;;;;;21.02;8.75;;;;;;;31.99;48.67;99838.98;1727622;82;21124;-36
2021/06/23 10:49:52;;;;;;;22.77;9.23;;;;;;;32.13;48.64;99848.98;1734208;82;21672;-37
2021/06/23 10:52:30;;;;;;;28.40;10.08;;;;;;;32.20;48.33;99843.31;1732914;82;21057;-43
2021/06/23 10:55:05;;;;;;;21.27;8.65;;;;;;;32.27;48.26;99837.14;1740477;80;21036;-36
2021/06/23 10:57:40;;;;;;;21.90;8.63;;;;;;;32.33;47.76;99840.26;1727672;81;21120;-44
2021/06/23 11:00:24;;;;;;;17.35;8.28;;;;;;;32.13;47.66;99841.71;1753236;81;21012;-37
2021/06/23 11:03:07;;;;;;;18.85;8.80;;;;;;;32.05;48.11;99839.73;1753177;81;21916;-36
2021/06/23 11:05:43;;;;;;;13.60;6.30;;;;;;;31.96;48.31;99846.55;1743888;81;21576;-36
2021/06/23 11:08:35;;;;;;;17.70;6.37;;;;;;;31.80;47.88;99851.22;1740786;81;21096;-38
2021/06/23 11:11:06;;;;;;;20.02;5.53;;;;;;;31.66;47.05;99851.16;1743388;81;21025;-42
2021/06/23 11:13:37;;;;;;;17.82;5.67;;;;;;;31.57;46.50;99856.08;1760408;80;21130;-36
2021/06/23 11:16:05;;;;;;;18.80;5.65;;;;;;;31.66;45.93;99851.63;1754359;80;21001;-42
2021/06/23 11:18:38;;;;;;;15.70;5.62;;;;;;;31.82;46.24;99849.21;1749869;81;21014;-42
2021/06/23 11:21:17;;;;;;;17.80;6.40;;;;;;;32.03;46.24;99855.77;1759113;80;21127;-36
2021/06/23 11:23:59;;;;;;;9.95;4.72;;;;;;;32.26;46.34;99857.09;1757585;80;21048;-37
2021/06/23 11:26:33;;;;;;;17.55;4.45;;;;;;;32.46;45.94;99857.87;1752172;81;21044;-42
2021/06/23 11:29:14;;;;;;;15.80;4.50;;;;;;;32.57;43.67;99864.94;1750885;80;21033;-36
2021/06/23 11:31:54;;;;;;;14.20;5.08;;;;;;;32.53;44.18;99873.88;1752018;81;21458;-36
2021/06/23 11:34:43;;;;;;;14.18;4.15;;;;;;;32.50;44.29;99874.17;1754180;80;21103;-36
2021/06/23 11:37:16;;;;;;;15.08;4.80;;;;;;;32.48;44.44;99867.21;1750494;81;21072;-37
2021/06/23 11:39:43;;;;;;;17.98;5.10;;;;;;;32.45;44.67;99868.85;1763970;80;21479;-37
2021/06/23 11:42:11;;;;;;;12.03;4.72;;;;;;;32.39;45.14;99874.36;1748397;82;21058;-43
2021/06/23 11:44:39;;;;;;;16.12;5.03;;;;;;;32.36;45.40;99873.83;1747815;81;21017;-43
2021/06/23 11:47:07;;;;;;;19.90;4.67;;;;;;;32.28;45.00;99875.38;1751392;81;21866;-43
2021/06/23 11:49:35;;;;;;;18.17;4.80;;;;;;;32.16;45.22;99881.13;1704055;83;21013;-42
2021/06/23 11:52:03;;;;;;;19.23;4.83;;;;;;;32.07;45.29;99877.98;1753872;81;21056;-36
2021/06/23 11:54:31;;;;;;;8.23;3.45;;;;;;;32.05;44.72;99881.66;1747584;81;21000;-36
2021/06/23 11:56:59;;;;;;;12.35;3.67;;;;;;;32.05;45.58;99881.66;1756436;80;21663;-44
2021/06/23 11:59:26;;;;;;;7.33;3.30;;;;;;;32.00;45.77;99882.60;1757665;80;21425;-37
2021/06/23 12:01:53;;;;;;;11.57;3.95;;;;;;;31.98;45.64;99879.70;1745803;81;21085;-37
2021/06/23 12:04:20;;;;;;;12.82;4.72;;;;;;;31.97;45.81;99882.91;1743152;81;20986;-43
2021/06/23 12:06:47;;;;;;;10.00;4.20;;;;;;;31.97;45.87;99883.41;1748752;81;20980;-37
2021/06/23 12:09:14;;;;;;;7.70;3.60;;;;;;;31.98;46.53;99877.84;1754124;81;20994;-37
2021/06/23 12:11:42;;;;;;;15.00;4.08;;;;;;;31.98;46.48;99883.77;1752340;81;21521;-44
2021/06/23 12:14:09;;;;;;;16.17;4.22;;;;;;;31.96;47.04;99887.97;1760040;81;21016;-43
2021/06/23 12:16:37;;;;;;;10.10;4.17;;;;;;;31.96;46.80;99885.77;1754901;80;21020;-43
2021/06/23 12:19:04;;;;;;;7.62;4.25;;;;;;;31.96;47.32;99887.97;1744322;81;20981;-37
2021/06/23 12:21:31;;;;;;;9.60;4.25;;;;;;;31.90;47.30;99892.62;1745567;81;21100;-37
2021/06/23 12:23:57;;;;;;;21.27;5.00;;;;;;;31.83;47.63;99894.17;1741438;81;21061;-42
2021/06/23 12:26:24;;;;;;;14.80;4.67;;;;;;;31.75;47.63;99892.18;1737152;82;21069;-37
2021/06/23 12:28:51;;;;;;;15.78;3.60;;;;;;;31.69;47.75;99890.06;1737893;81;21006;-43
2021/06/23 12:31:18;;;;;;;9.23;3.87;;;;;;;31.69;48.21;99890.06;1743656;81;20990;-36
2021/06/23 12:33:45;;;;;;;14.18;4.22;;;;;;;31.68;47.78;99890.21;1743881;81;21024;-43
2021/06/23 12:36:16;;;;;;;20.00;4.30;;;;;;;31.66;47.81;99893.54;1748157;81;21016;-43
2021/06/23 12:38:43;;;;;;;14.13;4.12;;;;;;;31.56;48.74;99897.62;1744403;81;21076;-36
2021/06/23 12:41:10;;;;;;;9.50;3.90;;;;;;;31.52;49.17;99893.50;1744276;81;21104;-36
2021/06/23 12:43:37;;;;;;;10.03;4.03;;;;;;;31.56;48.77;99892.72;1743502;81;21134;-36
2021/06/23 12:46:04;;;;;;;13.53;4.03;;;;;;;31.63;48.80;99891.14;1746690;81;21100;-42
2021/06/23 12:48:32;;;;;;;14.83;4.03;;;;;;;31.73;47.91;99889.28;1746637;81;21131;-37
2021/06/23 12:50:59;;;;;;;21.65;3.55;;;;;;;31.81;47.94;99893.98;1747598;82;21032;-36
2021/06/23 12:53:25;;;;;;;20.97;4.47;;;;;;;31.87;47.93;99894.25;1741606;81;21062;-37
2021/06/23 12:55:52;;;;;;;16.17;3.62;;;;;;;31.94;47.49;99901.27;1745795;81;21049;-43
2021/06/23 12:58:20;;;;;;;13.25;4.05;;;;;;;32.04;46.71;99898.05;1743970;81;21073;-44
2021/06/23 13:00:49;;;;;;;14.00;4.05;;;;;;;32.06;46.56;99900.09;1744042;81;21108;-45
2021/06/23 13:03:19;;;;;;;11.55;3.60;;;;;;;32.05;46.47;99890.28;1745593;81;21052;-44
2021/06/23 13:05:45;;;;;;;17.12;3.95;;;;;;;32.03;46.69;99892.29;1749295;81;21587;-43
2021/06/23 13:08:13;;;;;;;16.55;3.70;;;;;;;32.06;46.44;99893.33;1745387;81;21143;-43
2021/06/23 13:10:40;;;;;;;17.00;3.72;;;;;;;32.08;46.03;99894.56;1741821;82;21021;-45
2021/06/23 13:13:07;;;;;;;10.90;3.52;;;;;;;32.08;46.19;99898.11;1749893;81;21049;-37
2021/06/23 13:15:35;;;;;;;14.00;3.92;;;;;;;32.09;46.02;99894.41;1743556;82;21021;-44
2021/06/23 13:18:02;;;;;;;17.17;4.92;;;;;;;32.11;46.04;99899.16;1748568;81;21101;-36
2021/06/23 13:20:29;;;;;;;14.47;3.08;;;;;;;32.14;45.87;99894.81;1747667;81;21065;-36
2021/06/23 13:22:57;;;;;;;14.55;3.50;;;;;;;32.17;45.95;99890.45;1755634;80;21155;-36
2021/06/23 13:25:24;;;;;;;21.62;3.77;;;;;;;32.19;45.80;99895.73;1712907;83;21036;-36
2021/06/23 13:27:51;;;;;;;15.72;3.80;;;;;;;32.20;46.08;99896.93;1749883;80;22465;-43
2021/06/23 13:30:19;;;;;;;24.55;4.90;;;;;;;32.22;46.00;99897.62;1752835;80;21048;-35
2021/06/23 13:32:46;;;;;;;17.20;3.92;;;;;;;32.22;46.17;99898.97;1750240;81;21026;-43
2021/06/23 13:35:14;;;;;;;20.55;3.92;;;;;;;32.19;46.08;99898.44;1748209;81;21045;-42
2021/06/23 13:37:41;;;;;;;25.37;4.20;;;;;;;32.15;46.60;99892.96;1714149;82;21073;-42
2021/06/23 13:40:10;;;;;;;18.55;3.08;;;;;;;32.11;46.74;99898.30;1753992;81;20989;-37
2021/06/23 13:42:37;;;;;;;18.67;4.25;;;;;;;32.14;46.93;99896.67;1753935;81;21072;-36
2021/06/23 13:45:06;;;;;;;18.40;4.60;;;;;;;32.14;46.13;99901.58;1751447;81;21068;-37
2021/06/23 13:47:33;;;;;;;17.00;3.55;;;;;;;32.14;46.51;99904.79;1740144;81;21659;-36
2021/06/23 13:50:01;;;;;;;15.55;3.75;;;;;;;32.12;46.42;99904.91;1756500;79;21642;-36
2021/06/23 13:52:28;;;;;;;23.95;4.80;;;;;;;32.15;46.18;99907.84;1719123;83;21111;-42
2021/06/23 13:54:55;;;;;;;21.00;4.58;;;;;;;32.17;45.79;99909.39;1752825;81;21481;-44
2021/06/23 13:57:22;;;;;;;21.27;3.22;;;;;;;32.21;45.66;99911.30;1742974;81;21104;-42
2021/06/23 13:59:49;;;;;;;19.92;4.25;;;;;;;32.24;46.34;99915.05;1753386;81;21028;-43
2021/06/23 14:02:16;;;;;;;21.12;3.98;;;;;;;32.25;46.29;99913.58;1755371;80;21556;-36
2021/06/23 14:04:44;;;;;;;12.28;3.75;;;;;;;32.29;46.09;99911.41;1758129;80;21433;-45
2021/06/23 14:07:13;;;;;;;20.95;3.83;;;;;;;32.30;45.86;99916.69;1768720;80;21180;-37
2021/06/23 14:09:40;;;;;;;12.75;3.47;;;;;;;32.34;46.27;99918.61;1749324;80;21012;-43
2021/06/23 14:12:08;;;;;;;21.65;4.17;;;;;;;32.38;45.97;99923.24;1755194;80;21611;-43
2021/06/23 14:14:35;;;;;;;18.90;4.62;;;;;;;32.38;45.96;99921.89;1747619;79;21002;-44
2021/06/23 14:17:03;;;;;;;24.57;3.80;;;;;;;32.37;46.39;99922.89;1745505;80;21073;-38
2021/06/23 14:19:31;;;;;;;27.15;5.20;;;;;;;32.35;46.91;99919.47;1768717;80;20988;-43
2021/06/23 14:21:58;;;;;;;21.02;4.10;;;;;;;32.31;46.77;99918.89;1761638;80;21036;-37
2021/06/23 14:24:24;;;;;;;23.20;4.40;;;;;;;32.29;46.99;99912.76;1718191;83;21356;-37
2021/06/23 14:26:52;;;;;;;29.95;5.10;;;;;;;32.24;47.44;99913.23;1700849;82;21531;-44
2021/06/23 14:29:18;;;;;;;35.10;5.55;;;;;;;32.16;47.62;99913.59;1692673;83;21045;-44
2021/06/23 14:31:46;;;;;;;23.25;5.37;;;;;;;32.08;47.95;99913.50;1681613;83;21191;-44
2021/06/23 14:34:12;;;;;;;24.20;5.30;;;;;;;31.97;48.08;99920.78;1705598;83;21627;-44
2021/06/23 14:36:41;;;;;;;18.32;4.05;;;;;;;31.88;47.67;99916.73;1678895;84;21097;-37
2021/06/23 14:39:08;;;;;;;17.80;5.30;;;;;;;31.78;47.93;99922.15;1704871;83;20999;-37
2021/06/23 14:41:35;;;;;;;29.57;5.60;;;;;;;31.67;48.27;99920.95;1692992;83;21059;-36
2021/06/23 14:44:02;;;;;;;33.28;5.25;;;;;;;31.54;48.60;99923.93;1674306;83;21041;-43
